A4060 KLSV-KLSV
Flight info
| Callsign | A4060 |
|---|---|
| Flight time | 1h 50m |
| Altitude | 16500 |
| Route | FYTTRX7 FYTTR LMX DESERT/D0100 |
| Aircraft | F22/M-VGD/C |
Departure
| Time | 2026-04-13 18:38 |
|---|---|
| Airport | Nellis Air Force Base (KLSV) |
Arrival
| Time | 2026-04-13 20:28 |
|---|---|
| Airport | Nellis Air Force Base (KLSV) |
| Time | Latitude | Longitude | Altitude | Speed | Heading |
|---|---|---|---|---|---|
| 2026-04-13 18:19 | 36.22719 | -115.05093 | 1834 ft | 0 kts | 111° |
| 2026-04-13 18:31 | 36.22719 | -115.05091 | 1831 ft | 0 kts | 111° |
| 2026-04-13 18:32 | 36.22719 | -115.05088 | 1831 ft | 1 kts | 85° |
| 2026-04-13 18:32 | 36.22722 | -115.05081 | 1831 ft | 2 kts | 62° |
| 2026-04-13 18:32 | 36.22728 | -115.05066 | 1831 ft | 2 kts | 71° |
| 2026-04-13 18:32 | 36.22723 | -115.05047 | 1831 ft | 3 kts | 113° |
| 2026-04-13 18:33 | 36.22711 | -115.05021 | 1830 ft | 4 kts | 124° |
| 2026-04-13 18:33 | 36.22692 | -115.04993 | 1830 ft | 4 kts | 133° |
| 2026-04-13 18:33 | 36.22670 | -115.04964 | 1831 ft | 5 kts | 132° |
| 2026-04-13 18:34 | 36.22679 | -115.04911 | 1831 ft | 4 kts | 45° |
| 2026-04-13 18:34 | 36.22701 | -115.04887 | 1831 ft | 5 kts | 39° |
| 2026-04-13 18:34 | 36.22727 | -115.04860 | 1831 ft | 5 kts | 41° |
| 2026-04-13 18:34 | 36.22751 | -115.04833 | 1832 ft | 4 kts | 45° |
| 2026-04-13 18:35 | 36.22759 | -115.04813 | 1833 ft | 2 kts | 73° |
| 2026-04-13 18:35 | 36.22760 | -115.04803 | 1833 ft | 1 kts | 89° |
| 2026-04-13 18:35 | 36.22756 | -115.04786 | 1833 ft | 4 kts | 111° |
| 2026-04-13 18:35 | 36.22742 | -115.04763 | 1833 ft | 4 kts | 131° |
| 2026-04-13 18:36 | 36.22736 | -115.04754 | 1833 ft | 0 kts | 131° |
| 2026-04-13 18:36 | 36.22734 | -115.04752 | 1833 ft | 1 kts | 131° |
| 2026-04-13 18:36 | 36.22725 | -115.04738 | 1833 ft | 3 kts | 131° |
| 2026-04-13 18:36 | 36.22706 | -115.04712 | 1833 ft | 5 kts | 131° |
| 2026-04-13 18:37 | 36.22691 | -115.04688 | 1833 ft | 5 kts | 118° |
| 2026-04-13 18:37 | 36.22694 | -115.04646 | 1834 ft | 2 kts | 40° |
| 2026-04-13 18:37 | 36.22695 | -115.04645 | 1834 ft | 0 kts | 40° |
| 2026-04-13 18:37 | 36.22801 | -115.04531 | 1835 ft | 78 kts | 41° |
| 2026-04-13 18:38 | 36.23554 | -115.03711 | 1932 ft | 188 kts | 41° |
| 2026-04-13 18:38 | 36.24785 | -115.02400 | 2463 ft | 293 kts | 42° |
| 2026-04-13 18:38 | 36.26561 | -115.00399 | 3474 ft | 388 kts | 43° |
| 2026-04-13 18:38 | 36.28411 | -114.98287 | 4445 ft | 335 kts | 43° |
| 2026-04-13 18:39 | 36.30066 | -114.96389 | 5054 ft | 332 kts | 44° |
| 2026-04-13 18:39 | 36.31766 | -114.94410 | 5233 ft | 335 kts | 44° |
| 2026-04-13 18:39 | 36.33460 | -114.92466 | 5245 ft | 335 kts | 43° |
| 2026-04-13 18:39 | 36.35179 | -114.90529 | 5428 ft | 335 kts | 42° |
| 2026-04-13 18:40 | 36.36946 | -114.88646 | 5525 ft | 335 kts | 41° |
| 2026-04-13 18:40 | 36.38739 | -114.86795 | 5550 ft | 337 kts | 38° |
| 2026-04-13 18:40 | 36.40844 | -114.85644 | 5558 ft | 336 kts | 1° |
| 2026-04-13 18:40 | 36.43055 | -114.86399 | 5636 ft | 333 kts | 321° |
| 2026-04-13 18:41 | 36.44332 | -114.88701 | 5678 ft | 328 kts | 280° |
| 2026-04-13 18:41 | 36.44105 | -114.91435 | 5735 ft | 322 kts | 245° |
| 2026-04-13 18:41 | 36.43096 | -114.93903 | 6001 ft | 318 kts | 239° |
| 2026-04-13 18:41 | 36.41958 | -114.96288 | 6824 ft | 324 kts | 237° |
| 2026-04-13 18:42 | 36.40760 | -114.98685 | 7601 ft | 328 kts | 236° |
| 2026-04-13 18:42 | 36.39544 | -115.01102 | 8389 ft | 333 kts | 239° |
| 2026-04-13 18:42 | 36.38963 | -115.03875 | 9216 ft | 341 kts | 265° |
| 2026-04-13 18:42 | 36.38882 | -115.06814 | 9939 ft | 342 kts | 266° |
| 2026-04-13 18:43 | 36.38857 | -115.09794 | 10626 ft | 348 kts | 268° |
| 2026-04-13 18:43 | 36.38420 | -115.12702 | 11357 ft | 344 kts | 242° |
| 2026-04-13 18:43 | 36.37314 | -115.15350 | 12204 ft | 347 kts | 238° |
| 2026-04-13 18:43 | 36.36101 | -115.17952 | 13040 ft | 350 kts | 237° |
| 2026-04-13 18:44 | 36.34844 | -115.20553 | 13867 ft | 353 kts | 236° |
| 2026-04-13 18:44 | 36.33589 | -115.23118 | 14588 ft | 352 kts | 236° |
| 2026-04-13 18:44 | 36.32309 | -115.25713 | 15323 ft | 353 kts | 236° |
| 2026-04-13 18:44 | 36.31016 | -115.28316 | 15983 ft | 355 kts | 236° |
| 2026-04-13 18:45 | 36.29712 | -115.30928 | 16297 ft | 356 kts | 236° |
| 2026-04-13 18:45 | 36.28407 | -115.33534 | 16420 ft | 357 kts | 236° |
| 2026-04-13 18:45 | 36.27462 | -115.36366 | 16473 ft | 365 kts | 264° |
| 2026-04-13 18:45 | 36.28036 | -115.39439 | 16573 ft | 380 kts | 300° |
| 2026-04-13 18:46 | 36.29711 | -115.42016 | 16614 ft | 383 kts | 302° |
| 2026-04-13 18:46 | 36.31015 | -115.44858 | 16583 ft | 378 kts | 290° |
| 2026-04-13 18:46 | 36.31962 | -115.47889 | 16556 ft | 376 kts | 285° |
| 2026-04-13 18:46 | 36.32773 | -115.50972 | 16527 ft | 376 kts | 283° |
| 2026-04-13 18:47 | 36.33380 | -115.54109 | 16524 ft | 373 kts | 278° |
| 2026-04-13 18:47 | 36.33866 | -115.57270 | 16515 ft | 373 kts | 277° |
| 2026-04-13 18:47 | 36.34379 | -115.60423 | 16505 ft | 374 kts | 279° |
| 2026-04-13 18:47 | 36.34981 | -115.63561 | 16416 ft | 376 kts | 288° |
| 2026-04-13 18:48 | 36.36594 | -115.66132 | 16475 ft | 389 kts | 325° |
| 2026-04-13 18:48 | 36.39172 | -115.67132 | 16573 ft | 398 kts | 0° |
| 2026-04-13 18:48 | 36.41814 | -115.66189 | 16620 ft | 401 kts | 35° |
| 2026-04-13 18:48 | 36.43858 | -115.63858 | 16600 ft | 401 kts | 43° |
| 2026-04-13 18:49 | 36.46261 | -115.62135 | 16587 ft | 404 kts | 17° |
| 2026-04-13 18:49 | 36.48959 | -115.61196 | 16557 ft | 400 kts | 14° |
| 2026-04-13 18:49 | 36.51654 | -115.60336 | 16523 ft | 399 kts | 14° |
| 2026-04-13 18:49 | 36.54334 | -115.59434 | 16478 ft | 399 kts | 15° |
| 2026-04-13 18:50 | 36.57010 | -115.58495 | 16548 ft | 399 kts | 17° |
| 2026-04-13 18:50 | 36.58756 | -115.57770 | 16544 ft | 399 kts | 21° |
| 2026-04-13 18:50 | 36.61328 | -115.56474 | 16545 ft | 399 kts | 23° |
| 2026-04-13 18:50 | 36.64735 | -115.54730 | 16540 ft | 404 kts | 21° |
| 2026-04-13 18:51 | 36.67676 | -115.53295 | 16585 ft | 508 kts | 21° |
| 2026-04-13 18:51 | 36.71089 | -115.51635 | 16579 ft | 529 kts | 21° |
| 2026-04-13 18:51 | 36.74512 | -115.49946 | 16554 ft | 529 kts | 21° |
| 2026-04-13 18:51 | 36.77939 | -115.48252 | 16513 ft | 529 kts | 21° |
| 2026-04-13 18:52 | 36.80200 | -115.47137 | 16498 ft | 529 kts | 21° |
| 2026-04-13 18:52 | 36.83620 | -115.45452 | 16477 ft | 529 kts | 21° |
| 2026-04-13 18:52 | 36.87051 | -115.43759 | 16462 ft | 529 kts | 21° |
| 2026-04-13 18:52 | 36.90472 | -115.42067 | 16457 ft | 529 kts | 21° |
| 2026-04-13 18:53 | 36.93891 | -115.40377 | 16461 ft | 528 kts | 21° |
| 2026-04-13 18:53 | 36.97309 | -115.38685 | 16468 ft | 528 kts | 21° |
| 2026-04-13 18:53 | 37.00721 | -115.36995 | 16468 ft | 526 kts | 22° |
| 2026-04-13 18:53 | 37.04131 | -115.35302 | 16471 ft | 527 kts | 22° |
| 2026-04-13 18:54 | 37.07541 | -115.33610 | 16461 ft | 527 kts | 22° |
| 2026-04-13 18:54 | 37.10959 | -115.31913 | 16457 ft | 530 kts | 22° |
| 2026-04-13 18:54 | 37.14381 | -115.30211 | 16469 ft | 530 kts | 22° |
| 2026-04-13 18:54 | 37.17806 | -115.28505 | 16468 ft | 530 kts | 22° |
| 2026-04-13 18:55 | 37.21230 | -115.26800 | 16468 ft | 530 kts | 22° |
| 2026-04-13 18:55 | 37.24656 | -115.25092 | 16477 ft | 529 kts | 22° |
| 2026-04-13 18:55 | 37.28072 | -115.23388 | 16476 ft | 529 kts | 22° |
| 2026-04-13 18:55 | 37.31489 | -115.21680 | 16476 ft | 529 kts | 22° |
| 2026-04-13 18:56 | 37.34898 | -115.19979 | 16475 ft | 527 kts | 22° |
| 2026-04-13 18:56 | 37.38307 | -115.18267 | 16462 ft | 528 kts | 24° |
| 2026-04-13 18:56 | 37.41452 | -115.15920 | 16446 ft | 526 kts | 40° |
| 2026-04-13 18:56 | 37.44115 | -115.12773 | 16451 ft | 525 kts | 47° |
| 2026-04-13 18:57 | 37.46489 | -115.09288 | 16338 ft | 523 kts | 54° |
| 2026-04-13 18:57 | 37.48682 | -115.05644 | 16342 ft | 522 kts | 54° |
| 2026-04-13 18:57 | 37.50854 | -115.01987 | 16334 ft | 521 kts | 54° |
| 2026-04-13 18:57 | 37.53008 | -114.98308 | 16300 ft | 521 kts | 56° |
| 2026-04-13 18:58 | 37.54941 | -114.94460 | 16271 ft | 520 kts | 62° |
| 2026-04-13 18:58 | 37.56720 | -114.90488 | 16194 ft | 519 kts | 62° |
| 2026-04-13 18:58 | 37.58479 | -114.86514 | 16205 ft | 519 kts | 62° |
| 2026-04-13 18:58 | 37.60221 | -114.82529 | 16216 ft | 519 kts | 63° |
| 2026-04-13 18:59 | 37.61932 | -114.78582 | 16228 ft | 519 kts | 63° |
| 2026-04-13 18:59 | 37.63658 | -114.74572 | 16251 ft | 519 kts | 63° |
| 2026-04-13 18:59 | 37.65375 | -114.70561 | 16260 ft | 519 kts | 63° |
| 2026-04-13 18:59 | 37.67086 | -114.66548 | 16272 ft | 519 kts | 63° |
| 2026-04-13 19:00 | 37.68796 | -114.62535 | 16292 ft | 519 kts | 63° |
| 2026-04-13 19:00 | 37.70509 | -114.58514 | 16305 ft | 520 kts | 63° |
| 2026-04-13 19:00 | 37.72221 | -114.54490 | 16318 ft | 520 kts | 63° |
| 2026-04-13 19:00 | 37.73930 | -114.50470 | 16335 ft | 520 kts | 63° |
| 2026-04-13 19:01 | 37.75643 | -114.46437 | 16357 ft | 520 kts | 63° |
| 2026-04-13 19:01 | 37.77347 | -114.42415 | 16371 ft | 520 kts | 63° |
| 2026-04-13 19:01 | 37.79131 | -114.38429 | 16367 ft | 522 kts | 54° |
| 2026-04-13 19:01 | 37.81788 | -114.35314 | 16098 ft | 525 kts | 30° |
| 2026-04-13 19:02 | 37.85247 | -114.34012 | 15935 ft | 525 kts | 358° |
| 2026-04-13 19:02 | 37.88691 | -114.35301 | 15904 ft | 521 kts | 323° |
| 2026-04-13 19:02 | 37.90994 | -114.38728 | 15825 ft | 511 kts | 290° |
| 2026-04-13 19:02 | 37.91212 | -114.43085 | 15682 ft | 500 kts | 249° |
| 2026-04-13 19:03 | 37.89374 | -114.46751 | 15405 ft | 493 kts | 230° |
| 2026-04-13 19:03 | 37.87183 | -114.50095 | 15413 ft | 493 kts | 228° |
| 2026-04-13 19:03 | 37.84981 | -114.53423 | 15366 ft | 494 kts | 229° |
| 2026-04-13 19:03 | 37.82766 | -114.56737 | 15208 ft | 492 kts | 229° |
| 2026-04-13 19:04 | 37.80634 | -114.60140 | 15851 ft | 496 kts | 230° |
| 2026-04-13 19:04 | 37.78480 | -114.63545 | 16195 ft | 497 kts | 230° |
| 2026-04-13 19:04 | 37.76454 | -114.67095 | 16361 ft | 500 kts | 237° |
| 2026-04-13 19:04 | 37.74706 | -114.70895 | 16443 ft | 501 kts | 239° |
| 2026-04-13 19:05 | 37.73047 | -114.74767 | 16479 ft | 502 kts | 240° |
| 2026-04-13 19:05 | 37.71423 | -114.78667 | 16486 ft | 502 kts | 241° |
| 2026-04-13 19:05 | 37.69815 | -114.82577 | 16493 ft | 502 kts | 241° |
| 2026-04-13 19:05 | 37.68217 | -114.86487 | 16495 ft | 502 kts | 241° |
| 2026-04-13 19:06 | 37.66618 | -114.90406 | 16501 ft | 502 kts | 241° |
| 2026-04-13 19:06 | 37.65027 | -114.94319 | 16507 ft | 502 kts | 241° |
| 2026-04-13 19:06 | 37.63435 | -114.98234 | 16504 ft | 502 kts | 241° |
| 2026-04-13 19:06 | 37.61841 | -115.02157 | 16511 ft | 502 kts | 241° |
| 2026-04-13 19:07 | 37.60268 | -115.06025 | 16495 ft | 502 kts | 241° |
| 2026-04-13 19:07 | 37.58671 | -115.09945 | 16489 ft | 502 kts | 241° |
| 2026-04-13 19:07 | 37.57074 | -115.13863 | 16487 ft | 502 kts | 241° |
| 2026-04-13 19:07 | 37.55479 | -115.17776 | 16487 ft | 502 kts | 241° |
| 2026-04-13 19:08 | 37.53880 | -115.21698 | 16496 ft | 502 kts | 241° |
| 2026-04-13 19:08 | 37.52286 | -115.25609 | 16491 ft | 502 kts | 241° |
| 2026-04-13 19:08 | 37.50691 | -115.29525 | 16484 ft | 502 kts | 241° |
| 2026-04-13 19:08 | 37.49105 | -115.33444 | 16488 ft | 503 kts | 243° |
| 2026-04-13 19:09 | 37.48245 | -115.37704 | 16497 ft | 510 kts | 269° |
| 2026-04-13 19:09 | 37.49018 | -115.42054 | 16541 ft | 518 kts | 295° |
| 2026-04-13 19:09 | 37.51057 | -115.45800 | 16575 ft | 521 kts | 307° |
| 2026-04-13 19:09 | 37.53401 | -115.49279 | 16558 ft | 520 kts | 310° |
| 2026-04-13 19:10 | 37.55820 | -115.52675 | 16528 ft | 521 kts | 311° |
| 2026-04-13 19:10 | 37.58268 | -115.56034 | 16511 ft | 521 kts | 311° |
| 2026-04-13 19:10 | 37.60967 | -115.59060 | 16496 ft | 522 kts | 330° |
| 2026-04-13 19:10 | 37.64417 | -115.60406 | 16540 ft | 525 kts | 357° |
| 2026-04-13 19:11 | 37.67997 | -115.59703 | 16577 ft | 525 kts | 23° |
| 2026-04-13 19:11 | 37.70982 | -115.57140 | 16392 ft | 520 kts | 49° |
| 2026-04-13 19:11 | 37.73112 | -115.53487 | 16230 ft | 517 kts | 58° |
| 2026-04-13 19:11 | 37.74977 | -115.49677 | 16123 ft | 514 kts | 60° |
| 2026-04-13 19:12 | 37.76802 | -115.45730 | 16056 ft | 514 kts | 61° |
| 2026-04-13 19:12 | 37.78552 | -115.41853 | 16025 ft | 513 kts | 62° |
| 2026-04-13 19:12 | 37.80307 | -115.37923 | 16012 ft | 513 kts | 62° |
| 2026-04-13 19:12 | 37.82059 | -115.33986 | 16013 ft | 514 kts | 62° |
| 2026-04-13 19:13 | 37.83811 | -115.30048 | 16007 ft | 514 kts | 62° |
| 2026-04-13 19:13 | 37.85565 | -115.26106 | 16003 ft | 514 kts | 62° |
| 2026-04-13 19:13 | 37.87319 | -115.22161 | 16003 ft | 514 kts | 62° |
| 2026-04-13 19:13 | 37.89075 | -115.18217 | 16001 ft | 514 kts | 62° |
| 2026-04-13 19:14 | 37.90834 | -115.14266 | 15995 ft | 514 kts | 62° |
| 2026-04-13 19:14 | 37.92591 | -115.10324 | 16001 ft | 514 kts | 62° |
| 2026-04-13 19:14 | 37.94352 | -115.06374 | 16005 ft | 515 kts | 62° |
| 2026-04-13 19:14 | 37.96110 | -115.02433 | 16005 ft | 514 kts | 62° |
| 2026-04-13 19:15 | 37.97876 | -114.98480 | 15999 ft | 516 kts | 62° |
| 2026-04-13 19:15 | 37.99650 | -114.94529 | 16008 ft | 517 kts | 62° |
| 2026-04-13 19:15 | 38.01432 | -114.90575 | 16006 ft | 516 kts | 62° |
| 2026-04-13 19:15 | 38.03286 | -114.86667 | 15993 ft | 518 kts | 54° |
| 2026-04-13 19:16 | 38.06026 | -114.83726 | 16024 ft | 522 kts | 27° |
| 2026-04-13 19:16 | 38.09529 | -114.82560 | 16068 ft | 525 kts | 1° |
| 2026-04-13 19:16 | 38.13086 | -114.83395 | 16096 ft | 523 kts | 335° |
| 2026-04-13 19:16 | 38.16071 | -114.85979 | 16120 ft | 521 kts | 317° |
| 2026-04-13 19:17 | 38.18689 | -114.89153 | 16101 ft | 519 kts | 315° |
| 2026-04-13 19:17 | 38.21192 | -114.92448 | 16051 ft | 517 kts | 303° |
| 2026-04-13 19:17 | 38.22537 | -114.96614 | 16074 ft | 511 kts | 276° |
| 2026-04-13 19:17 | 38.22266 | -115.01143 | 16125 ft | 539 kts | 251° |
| 2026-04-13 19:18 | 38.20897 | -115.05559 | 16122 ft | 539 kts | 244° |
| 2026-04-13 19:18 | 38.19289 | -115.09860 | 16080 ft | 539 kts | 242° |
| 2026-04-13 19:18 | 38.17622 | -115.14067 | 16049 ft | 539 kts | 242° |
| 2026-04-13 19:18 | 38.15883 | -115.18351 | 16031 ft | 539 kts | 241° |
| 2026-04-13 19:19 | 38.14153 | -115.22571 | 16024 ft | 539 kts | 241° |
| 2026-04-13 19:19 | 38.12441 | -115.26730 | 16019 ft | 539 kts | 241° |
| 2026-04-13 19:19 | 38.10704 | -115.30942 | 16019 ft | 538 kts | 241° |
| 2026-04-13 19:19 | 38.08964 | -115.35156 | 16022 ft | 540 kts | 241° |
| 2026-04-13 19:20 | 38.07219 | -115.39371 | 16026 ft | 540 kts | 241° |
| 2026-04-13 19:20 | 38.05471 | -115.43593 | 16021 ft | 540 kts | 241° |
| 2026-04-13 19:20 | 38.03724 | -115.47808 | 16016 ft | 540 kts | 241° |
| 2026-04-13 19:20 | 38.01981 | -115.52019 | 16008 ft | 537 kts | 241° |
| 2026-04-13 19:21 | 38.00253 | -115.56215 | 16008 ft | 538 kts | 241° |
| 2026-04-13 19:21 | 37.98522 | -115.60423 | 16014 ft | 538 kts | 241° |
| 2026-04-13 19:21 | 37.96799 | -115.64619 | 16016 ft | 538 kts | 241° |
| 2026-04-13 19:21 | 37.95060 | -115.68839 | 16017 ft | 540 kts | 241° |
| 2026-04-13 19:22 | 37.93319 | -115.73053 | 16015 ft | 540 kts | 241° |
| 2026-04-13 19:22 | 37.91580 | -115.77255 | 16007 ft | 539 kts | 241° |
| 2026-04-13 19:22 | 37.89840 | -115.81460 | 16008 ft | 540 kts | 241° |
| 2026-04-13 19:22 | 37.88093 | -115.85679 | 16016 ft | 539 kts | 241° |
| 2026-04-13 19:23 | 37.86354 | -115.89878 | 16011 ft | 539 kts | 241° |
| 2026-04-13 19:23 | 37.84609 | -115.94092 | 16012 ft | 539 kts | 241° |
| 2026-04-13 19:23 | 37.82866 | -115.98304 | 16011 ft | 541 kts | 240° |
| 2026-04-13 19:23 | 37.80647 | -116.02094 | 16004 ft | 538 kts | 219° |
| 2026-04-13 19:24 | 37.77401 | -116.04359 | 16054 ft | 537 kts | 198° |
| 2026-04-13 19:24 | 37.73831 | -116.05684 | 16057 ft | 535 kts | 194° |
| 2026-04-13 19:24 | 37.70218 | -116.06789 | 16032 ft | 535 kts | 192° |
| 2026-04-13 19:24 | 37.66583 | -116.07812 | 16018 ft | 533 kts | 192° |
| 2026-04-13 19:25 | 37.63041 | -116.09213 | 15989 ft | 536 kts | 208° |
| 2026-04-13 19:25 | 37.60225 | -116.12258 | 16026 ft | 540 kts | 233° |
| 2026-04-13 19:25 | 37.58662 | -116.16541 | 16053 ft | 544 kts | 257° |
| 2026-04-13 19:25 | 37.58643 | -116.21300 | 16073 ft | 549 kts | 282° |
| 2026-04-13 19:26 | 37.60182 | -116.25672 | 16092 ft | 552 kts | 306° |
| 2026-04-13 19:26 | 37.62874 | -116.29009 | 16093 ft | 552 kts | 320° |
| 2026-04-13 19:26 | 37.65885 | -116.32030 | 16070 ft | 552 kts | 321° |
| 2026-04-13 19:26 | 37.68677 | -116.35333 | 16034 ft | 551 kts | 308° |
| 2026-04-13 19:27 | 37.70806 | -116.39350 | 16032 ft | 552 kts | 299° |
| 2026-04-13 19:27 | 37.72515 | -116.43685 | 16018 ft | 552 kts | 293° |
| 2026-04-13 19:27 | 37.73977 | -116.48168 | 16008 ft | 551 kts | 290° |
| 2026-04-13 19:27 | 37.75293 | -116.52700 | 15998 ft | 548 kts | 287° |
| 2026-04-13 19:28 | 37.76202 | -116.57379 | 16004 ft | 551 kts | 281° |
| 2026-04-13 19:28 | 37.76976 | -116.62132 | 16002 ft | 550 kts | 281° |
| 2026-04-13 19:28 | 37.77746 | -116.66892 | 15998 ft | 551 kts | 281° |
| 2026-04-13 19:28 | 37.78499 | -116.71635 | 15994 ft | 553 kts | 281° |
| 2026-04-13 19:29 | 37.79120 | -116.76407 | 15980 ft | 550 kts | 271° |
| 2026-04-13 19:29 | 37.78431 | -116.81120 | 16034 ft | 548 kts | 245° |
| 2026-04-13 19:29 | 37.76262 | -116.85035 | 16090 ft | 545 kts | 224° |
| 2026-04-13 19:29 | 37.73439 | -116.88248 | 16084 ft | 547 kts | 219° |
| 2026-04-13 19:30 | 37.70496 | -116.91274 | 16053 ft | 546 kts | 217° |
| 2026-04-13 19:30 | 37.67503 | -116.94237 | 16035 ft | 545 kts | 217° |
| 2026-04-13 19:30 | 37.64453 | -116.97059 | 16015 ft | 544 kts | 213° |
| 2026-04-13 19:30 | 37.61314 | -116.99720 | 16012 ft | 544 kts | 212° |
| 2026-04-13 19:31 | 37.58136 | -117.02314 | 16009 ft | 543 kts | 211° |
| 2026-04-13 19:31 | 37.54715 | -117.04072 | 16009 ft | 541 kts | 188° |
| 2026-04-13 19:31 | 37.51003 | -117.03815 | 16051 ft | 537 kts | 162° |
| 2026-04-13 19:31 | 37.47742 | -117.01587 | 16091 ft | 536 kts | 139° |
| 2026-04-13 19:32 | 37.45030 | -116.98382 | 16094 ft | 534 kts | 134° |
| 2026-04-13 19:32 | 37.42462 | -116.94993 | 16062 ft | 536 kts | 132° |
| 2026-04-13 19:32 | 37.39955 | -116.91542 | 16042 ft | 536 kts | 131° |
| 2026-04-13 19:32 | 37.37462 | -116.88047 | 16016 ft | 537 kts | 131° |
| 2026-04-13 19:33 | 37.34996 | -116.84554 | 15997 ft | 534 kts | 131° |
| 2026-04-13 19:33 | 37.32550 | -116.81063 | 15993 ft | 530 kts | 131° |
| 2026-04-13 19:33 | 37.30115 | -116.77576 | 15995 ft | 531 kts | 131° |
| 2026-04-13 19:34 | 37.25240 | -116.70589 | 15363 ft | 529 kts | 131° |
| 2026-04-13 19:34 | 37.22824 | -116.67132 | 15162 ft | 525 kts | 131° |
| 2026-04-13 19:34 | 37.20409 | -116.63684 | 15070 ft | 525 kts | 131° |
| 2026-04-13 19:34 | 37.18098 | -116.60174 | 15031 ft | 521 kts | 121° |
| 2026-04-13 19:35 | 37.16829 | -116.55962 | 14260 ft | 517 kts | 100° |
| 2026-04-13 19:35 | 37.16841 | -116.51538 | 11972 ft | 502 kts | 80° |
| 2026-04-13 19:35 | 37.18194 | -116.47641 | 9844 ft | 491 kts | 52° |
| 2026-04-13 19:35 | 37.20952 | -116.45189 | 8955 ft | 496 kts | 17° |
| 2026-04-13 19:36 | 37.24358 | -116.44481 | 8805 ft | 497 kts | 7° |
| 2026-04-13 19:36 | 37.27810 | -116.44091 | 8735 ft | 497 kts | 5° |
| 2026-04-13 19:36 | 37.31267 | -116.44130 | 9578 ft | 502 kts | 351° |
| 2026-04-13 19:36 | 37.34378 | -116.46066 | 10475 ft | 514 kts | 313° |
| 2026-04-13 19:37 | 37.35841 | -116.50078 | 11138 ft | 517 kts | 276° |
| 2026-04-13 19:37 | 37.35287 | -116.54379 | 9146 ft | 500 kts | 245° |
| 2026-04-13 19:37 | 37.33238 | -116.57796 | 9552 ft | 496 kts | 209° |
| 2026-04-13 19:37 | 37.29931 | -116.58397 | 9485 ft | 490 kts | 166° |
| 2026-04-13 19:38 | 37.26856 | -116.56645 | 9369 ft | 488 kts | 149° |
| 2026-04-13 19:38 | 37.23970 | -116.54395 | 9242 ft | 487 kts | 146° |
| 2026-04-13 19:38 | 37.21172 | -116.51998 | 9079 ft | 487 kts | 144° |
| 2026-04-13 19:38 | 37.18428 | -116.49510 | 8876 ft | 485 kts | 143° |
| 2026-04-13 19:39 | 37.15730 | -116.46985 | 8707 ft | 482 kts | 143° |
| 2026-04-13 19:39 | 37.13006 | -116.44543 | 8649 ft | 482 kts | 146° |
| 2026-04-13 19:39 | 37.10158 | -116.42301 | 8559 ft | 483 kts | 148° |
| 2026-04-13 19:39 | 37.08284 | -116.40835 | 8484 ft | 478 kts | 147° |
| 2026-04-13 19:40 | 37.05451 | -116.38609 | 8383 ft | 482 kts | 147° |
| 2026-04-13 19:40 | 37.02609 | -116.36418 | 8370 ft | 481 kts | 149° |
| 2026-04-13 19:40 | 36.99705 | -116.34379 | 8355 ft | 481 kts | 152° |
| 2026-04-13 19:40 | 36.96712 | -116.32499 | 8225 ft | 480 kts | 153° |
| 2026-04-13 19:41 | 36.93741 | -116.30631 | 8216 ft | 477 kts | 153° |
| 2026-04-13 19:41 | 36.90730 | -116.28913 | 9627 ft | 479 kts | 159° |
| 2026-04-13 19:41 | 36.87652 | -116.27474 | 13123 ft | 498 kts | 159° |
| 2026-04-13 19:42 | 36.81788 | -116.22733 | 11584 ft | 511 kts | 124° |
| 2026-04-13 19:42 | 36.81072 | -116.18569 | 9707 ft | 489 kts | 81° |
| 2026-04-13 19:42 | 36.81627 | -116.14363 | 9553 ft | 491 kts | 83° |
| 2026-04-13 19:42 | 36.82077 | -116.10140 | 9386 ft | 493 kts | 75° |
| 2026-04-13 19:43 | 36.83809 | -116.06560 | 9072 ft | 496 kts | 43° |
| 2026-04-13 19:43 | 36.86795 | -116.04470 | 9001 ft | 498 kts | 20° |
| 2026-04-13 19:43 | 36.90090 | -116.03081 | 9216 ft | 500 kts | 19° |
| 2026-04-13 19:43 | 36.93404 | -116.01779 | 9169 ft | 499 kts | 17° |
| 2026-04-13 19:44 | 36.96768 | -116.00698 | 8916 ft | 498 kts | 14° |
| 2026-04-13 19:44 | 37.00149 | -115.99723 | 8901 ft | 499 kts | 13° |
| 2026-04-13 19:44 | 37.03548 | -115.98851 | 8762 ft | 498 kts | 11° |
| 2026-04-13 19:44 | 37.06972 | -115.98178 | 8534 ft | 497 kts | 9° |
| 2026-04-13 19:45 | 37.10403 | -115.97576 | 8387 ft | 496 kts | 8° |
| 2026-04-13 19:45 | 37.13832 | -115.96991 | 8290 ft | 497 kts | 8° |
| 2026-04-13 19:45 | 37.17253 | -115.96409 | 8227 ft | 496 kts | 8° |
| 2026-04-13 19:45 | 37.20671 | -115.95784 | 8163 ft | 496 kts | 10° |
| 2026-04-13 19:46 | 37.24065 | -115.95033 | 8093 ft | 496 kts | 11° |
| 2026-04-13 19:46 | 37.27452 | -115.94178 | 8013 ft | 497 kts | 13° |
| 2026-04-13 19:46 | 37.30821 | -115.93276 | 7962 ft | 493 kts | 17° |
| 2026-04-13 19:46 | 37.33491 | -115.90770 | 9073 ft | 492 kts | 61° |
| 2026-04-13 19:47 | 37.34024 | -115.86630 | 9492 ft | 493 kts | 105° |
| 2026-04-13 19:47 | 37.32137 | -115.83165 | 9325 ft | 490 kts | 141° |
| 2026-04-13 19:47 | 37.29197 | -115.81207 | 8811 ft | 485 kts | 160° |
| 2026-04-13 19:47 | 37.26039 | -115.79734 | 8566 ft | 486 kts | 159° |
| 2026-04-13 19:48 | 37.22844 | -115.78207 | 8483 ft | 483 kts | 159° |
| 2026-04-13 19:48 | 37.19733 | -115.76744 | 8589 ft | 484 kts | 159° |
| 2026-04-13 19:48 | 37.16551 | -115.75184 | 8817 ft | 484 kts | 158° |
| 2026-04-13 19:48 | 37.13436 | -115.73538 | 8976 ft | 488 kts | 155° |
| 2026-04-13 19:49 | 37.10424 | -115.71579 | 9187 ft | 489 kts | 149° |
| 2026-04-13 19:49 | 37.07597 | -115.69222 | 9374 ft | 491 kts | 145° |
| 2026-04-13 19:49 | 37.04893 | -115.66714 | 9799 ft | 492 kts | 143° |
| 2026-04-13 19:49 | 37.02152 | -115.64124 | 10545 ft | 494 kts | 143° |
| 2026-04-13 19:50 | 36.99387 | -115.61524 | 11303 ft | 501 kts | 143° |
| 2026-04-13 19:50 | 36.96586 | -115.58889 | 12074 ft | 507 kts | 143° |
| 2026-04-13 19:50 | 36.93756 | -115.56230 | 12857 ft | 511 kts | 143° |
| 2026-04-13 19:50 | 36.90899 | -115.53553 | 13670 ft | 516 kts | 143° |
| 2026-04-13 19:51 | 36.88002 | -115.50874 | 14346 ft | 522 kts | 144° |
| 2026-04-13 19:51 | 36.85040 | -115.48257 | 14684 ft | 524 kts | 146° |
| 2026-04-13 19:51 | 36.82040 | -115.45660 | 14835 ft | 525 kts | 146° |
| 2026-04-13 19:51 | 36.79157 | -115.42870 | 14887 ft | 526 kts | 133° |
| 2026-04-13 19:52 | 36.77079 | -115.39108 | 14957 ft | 528 kts | 124° |
| 2026-04-13 19:52 | 36.74580 | -115.35821 | 14961 ft | 524 kts | 148° |
| 2026-04-13 19:52 | 36.71325 | -115.34285 | 14996 ft | 473 kts | 174° |
| 2026-04-13 19:52 | 36.68298 | -115.34796 | 15009 ft | 419 kts | 204° |
| 2026-04-13 19:53 | 36.65983 | -115.36934 | 15051 ft | 419 kts | 221° |
| 2026-04-13 19:53 | 36.63544 | -115.38819 | 15042 ft | 416 kts | 194° |
| 2026-04-13 19:53 | 36.60672 | -115.38862 | 15077 ft | 418 kts | 169° |
| 2026-04-13 19:53 | 36.57864 | -115.37943 | 15065 ft | 418 kts | 164° |
| 2026-04-13 19:54 | 36.55135 | -115.36852 | 14623 ft | 415 kts | 162° |
| 2026-04-13 19:54 | 36.52415 | -115.35692 | 14141 ft | 412 kts | 163° |
| 2026-04-13 19:54 | 36.49637 | -115.34876 | 13662 ft | 409 kts | 171° |
| 2026-04-13 19:54 | 36.46842 | -115.34346 | 13138 ft | 404 kts | 173° |
| 2026-04-13 19:55 | 36.44073 | -115.33818 | 12596 ft | 403 kts | 170° |
| 2026-04-13 19:55 | 36.41353 | -115.33139 | 11878 ft | 395 kts | 168° |
| 2026-04-13 19:55 | 36.38677 | -115.32359 | 11261 ft | 396 kts | 167° |
| 2026-04-13 19:55 | 36.36040 | -115.31571 | 10636 ft | 386 kts | 166° |
| 2026-04-13 19:56 | 36.33419 | -115.30751 | 10034 ft | 387 kts | 166° |
| 2026-04-13 19:56 | 36.30812 | -115.29919 | 9213 ft | 384 kts | 165° |
| 2026-04-13 19:56 | 36.28240 | -115.29051 | 8796 ft | 383 kts | 165° |
| 2026-04-13 19:56 | 36.25650 | -115.28296 | 8369 ft | 380 kts | 169° |
| 2026-04-13 19:57 | 36.23001 | -115.27801 | 7993 ft | 378 kts | 176° |
| 2026-04-13 19:57 | 36.20415 | -115.27674 | 7813 ft | 379 kts | 179° |
| 2026-04-13 19:57 | 36.17787 | -115.27584 | 7702 ft | 377 kts | 177° |
| 2026-04-13 19:57 | 36.15161 | -115.27319 | 7682 ft | 379 kts | 174° |
| 2026-04-13 19:58 | 36.12554 | -115.26955 | 7522 ft | 377 kts | 173° |
| 2026-04-13 19:58 | 36.09967 | -115.26430 | 7119 ft | 375 kts | 169° |
| 2026-04-13 19:58 | 36.07564 | -115.25240 | 6397 ft | 373 kts | 146° |
| 2026-04-13 19:58 | 36.06139 | -115.22758 | 6298 ft | 347 kts | 106° |
| 2026-04-13 19:59 | 36.06294 | -115.19965 | 6345 ft | 317 kts | 64° |
| 2026-04-13 19:59 | 36.07741 | -115.18153 | 6186 ft | 291 kts | 22° |
| 2026-04-13 19:59 | 36.09684 | -115.17622 | 5731 ft | 284 kts | 13° |
| 2026-04-13 19:59 | 36.11513 | -115.16737 | 5268 ft | 283 kts | 28° |
| 2026-04-13 20:00 | 36.13175 | -115.15448 | 4726 ft | 279 kts | 38° |
| 2026-04-13 20:00 | 36.14615 | -115.13886 | 4238 ft | 271 kts | 43° |
| 2026-04-13 20:00 | 36.16387 | -115.11825 | 3870 ft | 451 kts | 44° |
| 2026-04-13 20:00 | 36.19043 | -115.08704 | 3019 ft | 564 kts | 43° |
| 2026-04-13 20:01 | 36.21906 | -115.05511 | 2386 ft | 553 kts | 41° |
| 2026-04-13 20:01 | 36.25045 | -115.04514 | 2397 ft | 444 kts | 307° |
| 2026-04-13 20:01 | 36.24775 | -115.07325 | 3119 ft | 328 kts | 228° |
| 2026-04-13 20:01 | 36.23191 | -115.09326 | 3373 ft | 286 kts | 206° |
| 2026-04-13 20:02 | 36.21383 | -115.09294 | 3715 ft | 261 kts | 142° |
| 2026-04-13 20:02 | 36.20720 | -115.07585 | 3234 ft | 196 kts | 77° |
| 2026-04-13 20:02 | 36.21320 | -115.06311 | 2424 ft | 163 kts | 47° |
| 2026-04-13 20:02 | 36.22283 | -115.05109 | 2071 ft | 209 kts | 44° |
| 2026-04-13 20:03 | 36.23196 | -115.04121 | 1840 ft | 130 kts | 41° |
| 2026-04-13 20:03 | 36.24160 | -115.03060 | 2235 ft | 224 kts | 41° |
| 2026-04-13 20:03 | 36.25347 | -115.01787 | 2667 ft | 228 kts | 43° |
| 2026-04-13 20:03 | 36.26684 | -115.01056 | 2892 ft | 208 kts | 340° |
| 2026-04-13 20:04 | 36.27710 | -115.02048 | 2989 ft | 176 kts | 287° |
| 2026-04-13 20:04 | 36.27613 | -115.03458 | 2972 ft | 184 kts | 232° |
| 2026-04-13 20:04 | 36.26609 | -115.04641 | 3036 ft | 208 kts | 218° |
| 2026-04-13 20:04 | 36.25484 | -115.05828 | 3078 ft | 219 kts | 220° |
| 2026-04-13 20:05 | 36.24322 | -115.07104 | 3170 ft | 231 kts | 220° |
| 2026-04-13 20:05 | 36.23076 | -115.08462 | 3286 ft | 245 kts | 220° |
| 2026-04-13 20:05 | 36.21828 | -115.09793 | 3286 ft | 218 kts | 212° |
| 2026-04-13 20:05 | 36.20591 | -115.10148 | 3231 ft | 165 kts | 163° |
| 2026-04-13 20:06 | 36.19805 | -115.09277 | 3002 ft | 151 kts | 105° |
| 2026-04-13 20:06 | 36.19949 | -115.07892 | 2856 ft | 191 kts | 64° |
| 2026-04-13 20:06 | 36.20859 | -115.06596 | 2586 ft | 207 kts | 39° |
| 2026-04-13 20:06 | 36.21914 | -115.05497 | 2184 ft | 186 kts | 41° |
| 2026-04-13 20:07 | 36.22770 | -115.04580 | 1862 ft | 142 kts | 42° |
| 2026-04-13 20:07 | 36.23591 | -115.03664 | 2172 ft | 197 kts | 43° |
| 2026-04-13 20:07 | 36.24533 | -115.02596 | 2666 ft | 176 kts | 44° |
| 2026-04-13 20:07 | 36.25476 | -115.01558 | 2747 ft | 189 kts | 42° |
| 2026-04-13 20:08 | 36.26552 | -115.00542 | 2923 ft | 193 kts | 19° |
| 2026-04-13 20:08 | 36.27794 | -115.00705 | 3097 ft | 197 kts | 314° |
| 2026-04-13 20:08 | 36.28360 | -115.02247 | 3241 ft | 208 kts | 262° |
| 2026-04-13 20:08 | 36.27760 | -115.03942 | 3371 ft | 239 kts | 231° |
| 2026-04-13 20:09 | 36.26612 | -115.05600 | 3453 ft | 265 kts | 225° |
| 2026-04-13 20:09 | 36.25309 | -115.07210 | 3583 ft | 261 kts | 222° |
| 2026-04-13 20:09 | 36.23976 | -115.08713 | 3644 ft | 258 kts | 220° |
| 2026-04-13 20:09 | 36.22590 | -115.10134 | 3599 ft | 261 kts | 218° |
| 2026-04-13 20:10 | 36.21122 | -115.11474 | 3588 ft | 259 kts | 206° |
| 2026-04-13 20:10 | 36.19498 | -115.11585 | 3862 ft | 227 kts | 153° |
| 2026-04-13 20:10 | 36.18696 | -115.10245 | 3751 ft | 187 kts | 93° |
| 2026-04-13 20:10 | 36.19091 | -115.08685 | 3422 ft | 203 kts | 60° |
| 2026-04-13 20:11 | 36.20113 | -115.07396 | 2999 ft | 219 kts | 39° |
| 2026-04-13 20:11 | 36.21263 | -115.06231 | 2503 ft | 203 kts | 42° |
| 2026-04-13 20:11 | 36.22278 | -115.05105 | 2067 ft | 191 kts | 42° |
| 2026-04-13 20:11 | 36.23194 | -115.04114 | 1851 ft | 146 kts | 41° |
| 2026-04-13 20:12 | 36.24035 | -115.03207 | 2223 ft | 197 kts | 41° |
| 2026-04-13 20:12 | 36.25242 | -115.01956 | 3019 ft | 247 kts | 40° |
| 2026-04-13 20:12 | 36.26624 | -115.00622 | 3574 ft | 255 kts | 28° |
| 2026-04-13 20:12 | 36.28163 | -115.00445 | 3794 ft | 206 kts | 326° |
| 2026-04-13 20:13 | 36.28924 | -115.01649 | 3745 ft | 162 kts | 269° |
| 2026-04-13 20:13 | 36.28578 | -115.02972 | 3621 ft | 176 kts | 226° |
| 2026-04-13 20:13 | 36.27541 | -115.03981 | 3483 ft | 202 kts | 215° |
| 2026-04-13 20:13 | 36.26405 | -115.05069 | 3430 ft | 217 kts | 220° |
| 2026-04-13 20:14 | 36.25245 | -115.06479 | 3507 ft | 243 kts | 223° |
| 2026-04-13 20:14 | 36.23944 | -115.07906 | 3601 ft | 261 kts | 217° |
| 2026-04-13 20:14 | 36.22442 | -115.09252 | 3734 ft | 273 kts | 214° |
| 2026-04-13 20:14 | 36.20861 | -115.10573 | 3795 ft | 264 kts | 211° |
| 2026-04-13 20:15 | 36.19432 | -115.10652 | 3942 ft | 181 kts | 137° |
| 2026-04-13 20:15 | 36.19088 | -115.09336 | 3510 ft | 164 kts | 76° |
| 2026-04-13 20:15 | 36.19607 | -115.08067 | 2953 ft | 179 kts | 52° |
| 2026-04-13 20:15 | 36.20555 | -115.06959 | 2619 ft | 185 kts | 39° |
| 2026-04-13 20:16 | 36.21461 | -115.06003 | 2285 ft | 161 kts | 41° |
| 2026-04-13 20:16 | 36.22298 | -115.05085 | 2012 ft | 159 kts | 42° |
| 2026-04-13 20:16 | 36.23078 | -115.04239 | 1836 ft | 134 kts | 41° |
| 2026-04-13 20:16 | 36.24061 | -115.03158 | 2528 ft | 226 kts | 42° |
| 2026-04-13 20:17 | 36.25409 | -115.01682 | 3075 ft | 283 kts | 43° |
| 2026-04-13 20:17 | 36.26937 | -115.00036 | 3718 ft | 297 kts | 41° |
| 2026-04-13 20:17 | 36.28626 | -114.98433 | 4079 ft | 314 kts | 18° |
| 2026-04-13 20:17 | 36.30401 | -114.99103 | 3931 ft | 263 kts | 291° |
| 2026-04-13 20:18 | 36.30158 | -115.00944 | 3576 ft | 210 kts | 225° |
| 2026-04-13 20:18 | 36.29153 | -115.02184 | 3553 ft | 202 kts | 223° |
| 2026-04-13 20:18 | 36.28117 | -115.03335 | 3562 ft | 204 kts | 219° |
| 2026-04-13 20:18 | 36.27045 | -115.04422 | 3445 ft | 194 kts | 217° |
| 2026-04-13 20:19 | 36.25998 | -115.05433 | 3383 ft | 187 kts | 216° |
| 2026-04-13 20:19 | 36.24980 | -115.06371 | 3289 ft | 179 kts | 214° |
| 2026-04-13 20:19 | 36.23974 | -115.07247 | 3214 ft | 176 kts | 212° |
| 2026-04-13 20:19 | 36.22962 | -115.08063 | 3127 ft | 171 kts | 210° |
| 2026-04-13 20:20 | 36.21917 | -115.08696 | 3105 ft | 160 kts | 186° |
| 2026-04-13 20:20 | 36.20870 | -115.08278 | 3039 ft | 171 kts | 133° |
| 2026-04-13 20:20 | 36.20585 | -115.06875 | 2889 ft | 182 kts | 64° |
| 2026-04-13 20:20 | 36.21536 | -115.05823 | 2535 ft | 192 kts | 34° |
| 2026-04-13 20:21 | 36.22517 | -115.04855 | 1996 ft | 162 kts | 42° |
| 2026-04-13 20:21 | 36.23242 | -115.04044 | 1846 ft | 139 kts | 43° |
| 2026-04-13 20:21 | 36.24082 | -115.03098 | 2398 ft | 192 kts | 42° |
| 2026-04-13 20:21 | 36.25190 | -115.01869 | 3081 ft | 234 kts | 43° |
| 2026-04-13 20:22 | 36.26574 | -115.00348 | 3295 ft | 266 kts | 42° |
| 2026-04-13 20:22 | 36.27930 | -114.99431 | 3335 ft | 187 kts | 342° |
| 2026-04-13 20:22 | 36.28801 | -115.00399 | 3203 ft | 176 kts | 276° |
| 2026-04-13 20:22 | 36.28476 | -115.01794 | 3238 ft | 185 kts | 228° |
| 2026-04-13 20:23 | 36.27540 | -115.02914 | 3195 ft | 187 kts | 219° |
| 2026-04-13 20:23 | 36.26543 | -115.03904 | 3116 ft | 182 kts | 217° |
| 2026-04-13 20:23 | 36.25564 | -115.04869 | 3052 ft | 173 kts | 218° |
| 2026-04-13 20:23 | 36.24630 | -115.05761 | 2979 ft | 166 kts | 214° |
| 2026-04-13 20:24 | 36.23678 | -115.06517 | 2937 ft | 158 kts | 195° |
| 2026-04-13 20:24 | 36.22652 | -115.06326 | 2780 ft | 160 kts | 140° |
| 2026-04-13 20:24 | 36.22385 | -115.05084 | 2396 ft | 169 kts | 58° |
| 2026-04-13 20:24 | 36.23268 | -115.04032 | 1908 ft | 165 kts | 41° |
| 2026-04-13 20:25 | 36.24013 | -115.03228 | 1881 ft | 137 kts | 41° |
| 2026-04-13 20:25 | 36.24734 | -115.02452 | 2134 ft | 138 kts | 41° |
| 2026-04-13 20:25 | 36.25566 | -115.01578 | 2551 ft | 191 kts | 32° |
| 2026-04-13 20:25 | 36.26856 | -115.01542 | 2992 ft | 191 kts | 312° |
| 2026-04-13 20:26 | 36.27068 | -115.02835 | 3032 ft | 157 kts | 229° |
| 2026-04-13 20:26 | 36.26133 | -115.03676 | 2959 ft | 177 kts | 208° |
| 2026-04-13 20:26 | 36.25079 | -115.04619 | 2963 ft | 196 kts | 219° |
| 2026-04-13 20:26 | 36.24000 | -115.05808 | 3072 ft | 220 kts | 220° |
| 2026-04-13 20:27 | 36.22806 | -115.07096 | 3171 ft | 211 kts | 210° |
| 2026-04-13 20:27 | 36.22012 | -115.07315 | 3271 ft | 160 kts | 159° |
| 2026-04-13 20:27 | 36.21492 | -115.05994 | 2693 ft | 148 kts | 59° |
| 2026-04-13 20:27 | 36.22351 | -115.05005 | 2173 ft | 182 kts | 40° |
| 2026-04-13 20:28 | 36.23226 | -115.04075 | 1845 ft | 138 kts | 40° |
| 2026-04-13 20:28 | 36.23684 | -115.03582 | 1849 ft | 61 kts | 41° |
| 2026-04-13 20:28 | 36.23876 | -115.03374 | 1850 ft | 53 kts | 40° |
| 2026-04-13 20:28 | 36.24141 | -115.03088 | 1858 ft | 41 kts | 41° |
| 2026-04-13 20:29 | 36.24350 | -115.02865 | 1863 ft | 40 kts | 41° |
| 2026-04-13 20:29 | 36.24479 | -115.02734 | 1864 ft | 13 kts | 28° |
| 2026-04-13 20:29 | 36.24533 | -115.02734 | 1862 ft | 8 kts | 328° |
| 2026-04-13 20:29 | 36.24555 | -115.02826 | 1862 ft | 14 kts | 271° |
| 2026-04-13 20:30 | 36.24558 | -115.02952 | 1863 ft | 16 kts | 271° |
| 2026-04-13 20:30 | 36.24561 | -115.03095 | 1866 ft | 13 kts | 268° |
| 2026-04-13 20:30 | 36.24500 | -115.03138 | 1865 ft | 13 kts | 181° |
| 2026-04-13 20:30 | 36.24389 | -115.03142 | 1862 ft | 19 kts | 181° |
| 2026-04-13 20:31 | 36.24291 | -115.03165 | 1858 ft | 16 kts | 218° |
| 2026-04-13 20:31 | 36.24194 | -115.03271 | 1854 ft | 16 kts | 221° |
| 2026-04-13 20:31 | 36.24111 | -115.03362 | 1853 ft | 8 kts | 221° |
| 2026-04-13 20:31 | 36.24114 | -115.03423 | 1852 ft | 6 kts | 309° |
| 2026-04-13 20:32 | 36.24120 | -115.03445 | 1852 ft | 3 kts | 256° |
| 2026-04-13 20:32 | 36.24111 | -115.03461 | 1852 ft | 0 kts | 223° |